sensor_id;sensor_type;location;lat;lon;timestamp;pressure;altitude;pressure_sealevel;temperature;humidity
29215;BME280;16252;49.816;7.964;2022-12-16T00:00:29;99122.75;;;-2.53;57.48
29215;BME280;16252;49.816;7.964;2022-12-16T00:02:57;99118.47;;;-2.56;57.65
29215;BME280;16252;49.816;7.964;2022-12-16T00:05:24;99110.81;;;-2.60;57.69
29215;BME280;16252;49.816;7.964;2022-12-16T00:07:49;99123.78;;;-2.57;57.94
29215;BME280;16252;49.816;7.964;2022-12-16T00:10:15;99105.84;;;-2.68;57.73
29215;BME280;16252;49.816;7.964;2022-12-16T00:12:40;99095.59;;;-2.74;57.85
29215;BME280;16252;49.816;7.964;2022-12-16T00:15:05;99131.66;;;-2.57;57.54
29215;BME280;16252;49.816;7.964;2022-12-16T00:17:31;99128.22;;;-2.59;57.81
29215;BME280;16252;49.816;7.964;2022-12-16T00:19:56;99122.28;;;-2.65;57.51
29215;BME280;16252;49.816;7.964;2022-12-16T00:22:22;99127.31;;;-2.58;57.29
29215;BME280;16252;49.816;7.964;2022-12-16T00:24:48;99119.81;;;-2.68;57.35
29215;BME280;16252;49.816;7.964;2022-12-16T00:27:13;99102.72;;;-2.78;57.36
29215;BME280;16252;49.816;7.964;2022-12-16T00:29:38;99125.25;;;-2.74;56.96
29215;BME280;16252;49.816;7.964;2022-12-16T00:32:04;99095.47;;;-2.95;57.05
29215;BME280;16252;49.816;7.964;2022-12-16T00:34:30;99129.09;;;-2.84;56.97
29215;BME280;16252;49.816;7.964;2022-12-16T00:36:55;99111.28;;;-2.98;56.88
29215;BME280;16252;49.816;7.964;2022-12-16T00:39:22;99136.41;;;-2.94;56.77
29215;BME280;16252;49.816;7.964;2022-12-16T00:41:47;99119.50;;;-3.09;56.68
29215;BME280;16252;49.816;7.964;2022-12-16T00:44:15;99102.50;;;-3.22;56.72
29215;BME280;16252;49.816;7.964;2022-12-16T00:46:40;99118.00;;;-3.16;56.77
29215;BME280;16252;49.816;7.964;2022-12-16T00:49:05;99117.31;;;-3.21;56.99
29215;BME280;16252;49.816;7.964;2022-12-16T00:51:31;99130.31;;;-3.19;56.95
29215;BME280;16252;49.816;7.964;2022-12-16T00:53:56;99133.16;;;-3.25;57.18
29215;BME280;16252;49.816;7.964;2022-12-16T00:56:24;99123.78;;;-3.31;57.16
29215;BME280;16252;49.816;7.964;2022-12-16T00:58:50;99123.91;;;-3.36;57.10
29215;BME280;16252;49.816;7.964;2022-12-16T01:01:15;99124.03;;;-3.39;57.37
29215;BME280;16252;49.816;7.964;2022-12-16T01:03:41;99125.75;;;-3.39;57.32
29215;BME280;16252;49.816;7.964;2022-12-16T01:06:08;99125.13;;;-3.46;57.13
29215;BME280;16252;49.816;7.964;2022-12-16T01:08:34;99156.75;;;-3.27;57.00
29215;BME280;16252;49.816;7.964;2022-12-16T01:10:59;99128.72;;;-3.49;57.05
29215;BME280;16252;49.816;7.964;2022-12-16T01:13:25;99145.69;;;-3.35;57.04
29215;BME280;16252;49.816;7.964;2022-12-16T01:15:51;99135.50;;;-3.43;57.17
29215;BME280;16252;49.816;7.964;2022-12-16T01:18:16;99150.81;;;-3.32;57.25
29215;BME280;16252;49.816;7.964;2022-12-16T01:20:42;99167.13;;;-3.24;57.09
29215;BME280;16252;49.816;7.964;2022-12-16T01:23:07;99166.31;;;-3.26;57.38
29215;BME280;16252;49.816;7.964;2022-12-16T01:25:33;99157.94;;;-3.36;57.35
29215;BME280;16252;49.816;7.964;2022-12-16T01:27:58;99168.16;;;-3.30;57.52
29215;BME280;16252;49.816;7.964;2022-12-16T01:30:24;99180.09;;;-3.21;57.50
29215;BME280;16252;49.816;7.964;2022-12-16T01:32:49;99145.81;;;-3.38;57.49
29215;BME280;16252;49.816;7.964;2022-12-16T01:35:15;99167.31;;;-3.30;57.16
29215;BME280;16252;49.816;7.964;2022-12-16T01:37:40;99175.97;;;-3.28;57.37
29215;BME280;16252;49.816;7.964;2022-12-16T01:40:06;99182.91;;;-3.27;57.35
29215;BME280;16252;49.816;7.964;2022-12-16T01:42:33;99163.16;;;-3.36;57.21
29215;BME280;16252;49.816;7.964;2022-12-16T01:47:48;99184.56;;;-3.24;57.14
29215;BME280;16252;49.816;7.964;2022-12-16T01:50:15;99176.81;;;-3.28;57.39
29215;BME280;16252;49.816;7.964;2022-12-16T01:52:47;99164.16;;;-3.40;57.41
29215;BME280;16252;49.816;7.964;2022-12-16T01:55:20;99170.75;;;-3.28;57.39
29215;BME280;16252;49.816;7.964;2022-12-16T01:58:03;99183.72;;;-3.25;57.55
29215;BME280;16252;49.816;7.964;2022-12-16T02:00:30;99129.91;;;-3.59;57.47
29215;BME280;16252;49.816;7.964;2022-12-16T02:02:56;99181.31;;;-3.31;57.56
29215;BME280;16252;49.816;7.964;2022-12-16T02:05:22;99195.00;;;-3.23;57.51
29215;BME280;16252;49.816;7.964;2022-12-16T02:08:15;99187.16;;;-3.23;57.41
29215;BME280;16252;49.816;7.964;2022-12-16T02:21:33;99208.19;;;-3.26;57.25
29215;BME280;16252;49.816;7.964;2022-12-16T02:24:24;99200.38;;;-3.28;57.17
29215;BME280;16252;49.816;7.964;2022-12-16T02:27:10;99203.00;;;-3.28;57.23
29215;BME280;16252;49.816;7.964;2022-12-16T02:30:04;99187.53;;;-3.35;57.04
29215;BME280;16252;49.816;7.964;2022-12-16T02:35:13;99199.56;;;-3.30;56.83
29215;BME280;16252;49.816;7.964;2022-12-16T02:37:44;99192.81;;;-3.37;56.87
29215;BME280;16252;49.816;7.964;2022-12-16T02:40:48;99152.44;;;-3.55;56.49
29215;BME280;16252;49.816;7.964;2022-12-16T02:45:54;99150.84;;;-3.59;56.57
29215;BME280;16252;49.816;7.964;2022-12-16T02:48:19;99171.53;;;-3.53;56.65
29215;BME280;16252;49.816;7.964;2022-12-16T02:50:48;99162.09;;;-3.57;56.25
29215;BME280;16252;49.816;7.964;2022-12-16T02:53:15;99159.91;;;-3.71;56.43
29215;BME280;16252;49.816;7.964;2022-12-16T02:58:38;99191.72;;;-3.56;56.45
29215;BME280;16252;49.816;7.964;2022-12-16T03:03:45;99193.78;;;-3.67;56.08
29215;BME280;16252;49.816;7.964;2022-12-16T03:06:16;99206.09;;;-3.69;56.38
29215;BME280;16252;49.816;7.964;2022-12-16T03:11:10;99151.69;;;-4.15;56.11
29215;BME280;16252;49.816;7.964;2022-12-16T03:13:40;99203.13;;;-3.87;56.09
29215;BME280;16252;49.816;7.964;2022-12-16T03:16:09;99208.53;;;-3.93;56.06
29215;BME280;16252;49.816;7.964;2022-12-16T03:18:37;99208.72;;;-3.99;55.92
29215;BME280;16252;49.816;7.964;2022-12-16T03:21:05;99210.66;;;-4.06;55.99
29215;BME280;16252;49.816;7.964;2022-12-16T03:24:02;99177.41;;;-4.30;55.66
29215;BME280;16252;49.816;7.964;2022-12-16T03:26:29;99194.06;;;-4.34;56.24
29215;BME280;16252;49.816;7.964;2022-12-16T03:29:08;99180.50;;;-4.47;55.94
29215;BME280;16252;49.816;7.964;2022-12-16T03:31:49;99215.59;;;-4.26;55.94
29215;BME280;16252;49.816;7.964;2022-12-16T03:34:34;99226.13;;;-4.29;56.43
29215;BME280;16252;49.816;7.964;2022-12-16T03:37:04;99222.69;;;-4.30;56.30
29215;BME280;16252;49.816;7.964;2022-12-16T03:39:36;99220.94;;;-4.31;56.28
29215;BME280;16252;49.816;7.964;2022-12-16T03:42:04;99215.94;;;-4.39;56.46
29215;BME280;16252;49.816;7.964;2022-12-16T03:44:30;99228.03;;;-4.34;56.61
29215;BME280;16252;49.816;7.964;2022-12-16T03:46:57;99210.09;;;-4.47;56.72
29215;BME280;16252;49.816;7.964;2022-12-16T03:49:22;99216.03;;;-4.42;56.86
29215;BME280;16252;49.816;7.964;2022-12-16T03:51:47;99229.00;;;-4.39;56.67
29215;BME280;16252;49.816;7.964;2022-12-16T03:54:13;99204.13;;;-4.52;56.67
29215;BME280;16252;49.816;7.964;2022-12-16T03:56:38;99233.28;;;-4.36;56.61
29215;BME280;16252;49.816;7.964;2022-12-16T03:59:03;99210.28;;;-4.54;56.64
29215;BME280;16252;49.816;7.964;2022-12-16T04:01:29;99151.13;;;-4.87;56.66
29215;BME280;16252;49.816;7.964;2022-12-16T04:03:54;99236.69;;;-4.32;56.42
29215;BME280;16252;49.816;7.964;2022-12-16T04:06:19;99245.44;;;-4.35;56.53
29215;BME280;16252;49.816;7.964;2022-12-16T04:08:45;99246.34;;;-4.36;56.31
29215;BME280;16252;49.816;7.964;2022-12-16T04:11:11;99235.34;;;-4.47;56.36
29215;BME280;16252;49.816;7.964;2022-12-16T04:13:55;99236.16;;;-4.45;56.55
29215;BME280;16252;49.816;7.964;2022-12-16T04:16:44;99237.94;;;-4.47;56.41
29215;BME280;16252;49.816;7.964;2022-12-16T04:19:31;99196.00;;;-4.72;56.27
29215;BME280;16252;49.816;7.964;2022-12-16T04:22:20;99248.22;;;-4.41;56.20
29215;BME280;16252;49.816;7.964;2022-12-16T04:25:17;99239.78;;;-4.51;56.13
29215;BME280;16252;49.816;7.964;2022-12-16T04:27:43;99259.72;;;-4.48;56.59
29215;BME280;16252;49.816;7.964;2022-12-16T04:30:12;99264.88;;;-4.45;56.27
29215;BME280;16252;49.816;7.964;2022-12-16T04:33:16;99268.25;;;-4.42;55.84
29215;BME280;16252;49.816;7.964;2022-12-16T04:36:00;99257.38;;;-4.58;56.26
29215;BME280;16252;49.816;7.964;2022-12-16T04:38:44;99254.13;;;-4.66;56.18
29215;BME280;16252;49.816;7.964;2022-12-16T04:41:28;99270.47;;;-4.59;56.30
29215;BME280;16252;49.816;7.964;2022-12-16T04:44:12;99266.25;;;-4.65;56.27
29215;BME280;16252;49.816;7.964;2022-12-16T04:46:55;99265.50;;;-4.68;56.55
29215;BME280;16252;49.816;7.964;2022-12-16T04:49:39;99209.06;;;-5.07;56.04
29215;BME280;16252;49.816;7.964;2022-12-16T04:52:23;99268.25;;;-4.74;56.11
29215;BME280;16252;49.816;7.964;2022-12-16T04:55:08;99256.44;;;-4.89;55.86
29215;BME280;16252;49.816;7.964;2022-12-16T04:57:54;99290.06;;;-4.77;56.34
29215;BME280;16252;49.816;7.964;2022-12-16T05:00:38;99292.03;;;-4.87;56.23
29215;BME280;16252;49.816;7.964;2022-12-16T05:03:22;99282.72;;;-4.97;56.56
29215;BME280;16252;49.816;7.964;2022-12-16T05:06:06;99305.16;;;-4.88;56.25
29215;BME280;16252;49.816;7.964;2022-12-16T05:08:50;99285.44;;;-5.02;56.43
29215;BME280;16252;49.816;7.964;2022-12-16T05:11:35;99305.19;;;-4.91;56.09
29215;BME280;16252;49.816;7.964;2022-12-16T05:14:19;99283.00;;;-5.08;56.18
29215;BME280;16252;49.816;7.964;2022-12-16T05:17:03;99331.06;;;-4.82;56.44
29215;BME280;16252;49.816;7.964;2022-12-16T05:19:47;99313.84;;;-4.89;56.25
29215;BME280;16252;49.816;7.964;2022-12-16T05:22:31;99329.41;;;-4.85;56.25
29215;BME280;16252;49.816;7.964;2022-12-16T05:25:15;99307.00;;;-4.93;56.25
29215;BME280;16252;49.816;7.964;2022-12-16T05:27:59;99320.81;;;-4.88;56.24
29215;BME280;16252;49.816;7.964;2022-12-16T05:30:43;99343.16;;;-4.78;56.24
29215;BME280;16252;49.816;7.964;2022-12-16T05:33:27;99330.34;;;-4.87;56.32
29215;BME280;16252;49.816;7.964;2022-12-16T05:36:11;99324.38;;;-4.92;56.35
29215;BME280;16252;49.816;7.964;2022-12-16T05:38:55;99328.84;;;-4.97;56.30
29215;BME280;16252;49.816;7.964;2022-12-16T05:41:39;99321.22;;;-5.07;56.32
29215;BME280;16252;49.816;7.964;2022-12-16T05:44:23;99352.47;;;-5.04;56.11
29215;BME280;16252;49.816;7.964;2022-12-16T05:47:07;99361.94;;;-4.99;56.39
29215;BME280;16252;49.816;7.964;2022-12-16T05:49:52;99348.22;;;-5.08;56.45
29215;BME280;16252;49.816;7.964;2022-12-16T05:52:36;99364.63;;;-5.03;56.32
29215;BME280;16252;49.816;7.964;2022-12-16T05:55:20;99344.88;;;-5.14;56.40
29215;BME280;16252;49.816;7.964;2022-12-16T05:58:04;99375.97;;;-5.04;56.36
29215;BME280;16252;49.816;7.964;2022-12-16T06:00:48;99375.97;;;-5.05;56.66
29215;BME280;16252;49.816;7.964;2022-12-16T06:03:31;99382.09;;;-5.06;56.63
29215;BME280;16252;49.816;7.964;2022-12-16T06:06:15;99377.81;;;-5.09;56.62
29215;BME280;16252;49.816;7.964;2022-12-16T06:08:59;99377.91;;;-5.13;56.42
29215;BME280;16252;49.816;7.964;2022-12-16T06:11:43;99373.56;;;-5.14;56.68
29215;BME280;16252;49.816;7.964;2022-12-16T06:14:27;99381.28;;;-5.10;56.51
29215;BME280;16252;49.816;7.964;2022-12-16T06:17:11;99370.28;;;-5.23;56.30
29215;BME280;16252;49.816;7.964;2022-12-16T06:19:55;99382.38;;;-5.18;56.38
29215;BME280;16252;49.816;7.964;2022-12-16T06:22:39;99383.25;;;-5.19;56.53
29215;BME280;16252;49.816;7.964;2022-12-16T06:25:23;99397.13;;;-5.17;56.34
29215;BME280;16252;49.816;7.964;2022-12-16T06:28:07;99396.41;;;-5.24;56.47
29215;BME280;16252;49.816;7.964;2022-12-16T06:30:51;99404.88;;;-5.14;56.78
29215;BME280;16252;49.816;7.964;2022-12-16T06:33:35;99383.47;;;-5.29;56.79
29215;BME280;16252;49.816;7.964;2022-12-16T06:36:19;99372.31;;;-5.35;56.85
29215;BME280;16252;49.816;7.964;2022-12-16T06:39:03;99387.94;;;-5.34;56.95
29215;BME280;16252;49.816;7.964;2022-12-16T06:41:47;99420.56;;;-5.16;56.95
29215;BME280;16252;49.816;7.964;2022-12-16T06:44:31;99420.66;;;-5.20;56.79
29215;BME280;16252;49.816;7.964;2022-12-16T06:47:15;99400.78;;;-5.26;56.24
29215;BME280;16252;49.816;7.964;2022-12-16T06:49:59;99431.69;;;-5.08;56.22
29215;BME280;16252;49.816;7.964;2022-12-16T06:52:43;99408.41;;;-5.17;56.11
29215;BME280;16252;49.816;7.964;2022-12-16T06:55:27;99417.97;;;-5.17;56.38
29215;BME280;16252;49.816;7.964;2022-12-16T06:58:10;99396.63;;;-5.35;56.24
29215;BME280;16252;49.816;7.964;2022-12-16T07:00:54;99428.50;;;-5.22;56.15
29215;BME280;16252;49.816;7.964;2022-12-16T07:03:38;99445.91;;;-5.21;55.87
29215;BME280;16252;49.816;7.964;2022-12-16T07:06:22;99461.56;;;-5.23;55.78
29215;BME280;16252;49.816;7.964;2022-12-16T07:09:06;99429.13;;;-5.51;55.91
29215;BME280;16252;49.816;7.964;2022-12-16T07:11:54;99456.81;;;-5.46;55.76
29215;BME280;16252;49.816;7.964;2022-12-16T07:14:38;99473.31;;;-5.45;55.83
29215;BME280;16252;49.816;7.964;2022-12-16T07:17:22;99474.31;;;-5.51;55.58
29215;BME280;16252;49.816;7.964;2022-12-16T07:20:06;99432.28;;;-5.80;55.62
29215;BME280;16252;49.816;7.964;2022-12-16T07:22:50;99501.31;;;-5.55;55.77
29215;BME280;16252;49.816;7.964;2022-12-16T07:25:34;99493.69;;;-5.64;55.62
29215;BME280;16252;49.816;7.964;2022-12-16T07:28:18;99500.63;;;-5.64;55.56
29215;BME280;16252;49.816;7.964;2022-12-16T07:31:02;99517.06;;;-5.59;55.44
29215;BME280;16252;49.816;7.964;2022-12-16T07:33:46;99509.44;;;-5.72;55.45
29215;BME280;16252;49.816;7.964;2022-12-16T07:36:30;99477.78;;;-5.97;55.23
29215;BME280;16252;49.816;7.964;2022-12-16T07:39:14;99514.75;;;-5.78;55.68
29215;BME280;16252;49.816;7.964;2022-12-16T07:41:58;99506.34;;;-5.92;55.64
29215;BME280;16252;49.816;7.964;2022-12-16T07:44:42;99532.22;;;-5.83;55.74
29215;BME280;16252;49.816;7.964;2022-12-16T07:47:26;99534.81;;;-5.83;55.78
29215;BME280;16252;49.816;7.964;2022-12-16T07:50:09;99519.38;;;-5.92;55.80
29215;BME280;16252;49.816;7.964;2022-12-16T07:52:55;99540.09;;;-5.84;55.77
29215;BME280;16252;49.816;7.964;2022-12-16T07:55:38;99560.78;;;-5.77;55.67
29215;BME280;16252;49.816;7.964;2022-12-16T07:58:22;99515.31;;;-6.07;55.98
29215;BME280;16252;49.816;7.964;2022-12-16T08:01:06;99550.50;;;-5.86;55.93
29215;BME280;16252;49.816;7.964;2022-12-16T08:03:50;99553.97;;;-5.85;56.00
29215;BME280;16252;49.816;7.964;2022-12-16T08:06:34;99547.13;;;-5.90;56.22
29215;BME280;16252;49.816;7.964;2022-12-16T08:09:18;99557.28;;;-5.76;56.29
29215;BME280;16252;49.816;7.964;2022-12-16T08:12:02;99550.38;;;-5.78;56.09
29215;BME280;16252;49.816;7.964;2022-12-16T08:14:46;99576.03;;;-5.54;56.39
29215;BME280;16252;49.816;7.964;2022-12-16T08:17:30;99573.38;;;-5.51;56.45
29215;BME280;16252;49.816;7.964;2022-12-16T08:20:14;99570.75;;;-5.49;56.57
29215;BME280;16252;49.816;7.964;2022-12-16T08:22:58;99583.56;;;-5.38;56.49
29215;BME280;16252;49.816;7.964;2022-12-16T08:25:42;99588.72;;;-5.35;56.60
29215;BME280;16252;49.816;7.964;2022-12-16T08:28:26;99590.47;;;-5.36;56.27
29215;BME280;16252;49.816;7.964;2022-12-16T08:31:10;99618.81;;;-5.17;56.76
29215;BME280;16252;49.816;7.964;2022-12-16T08:33:54;99580.00;;;-5.34;56.46
29215;BME280;16252;49.816;7.964;2022-12-16T08:36:38;99600.56;;;-5.16;56.39
29215;BME280;16252;49.816;7.964;2022-12-16T08:39:22;99604.00;;;-5.15;56.39
29215;BME280;16252;49.816;7.964;2022-12-16T08:42:05;99544.75;;;-5.54;56.44
29215;BME280;16252;49.816;7.964;2022-12-16T08:44:50;99497.22;;;-5.68;56.81
29215;BME280;16252;49.816;7.964;2022-12-16T08:47:33;99628.81;;;-4.94;56.88
29215;BME280;16252;49.816;7.964;2022-12-16T08:50:17;99645.09;;;-4.82;56.94
29215;BME280;16252;49.816;7.964;2022-12-16T08:53:01;99620.84;;;-4.87;57.12
29215;BME280;16252;49.816;7.964;2022-12-16T08:55:45;99573.41;;;-5.06;57.23
29215;BME280;16252;49.816;7.964;2022-12-16T08:58:29;99617.91;;;-4.68;57.42
29215;BME280;16252;49.816;7.964;2022-12-16T09:01:13;99628.91;;;-4.54;57.36
29215;BME280;16252;49.816;7.964;2022-12-16T09:03:57;99620.03;;;-4.47;57.28
29215;BME280;16252;49.816;7.964;2022-12-16T09:06:41;99616.44;;;-4.41;57.34
29215;BME280;16252;49.816;7.964;2022-12-16T09:09:25;99609.44;;;-4.39;57.51
29215;BME280;16252;49.816;7.964;2022-12-16T09:12:09;99630.72;;;-4.17;57.72
29215;BME280;16252;49.816;7.964;2022-12-16T09:14:53;99635.88;;;-4.14;57.49
29215;BME280;16252;49.816;7.964;2022-12-16T09:17:37;99605.47;;;-4.18;57.46
29215;BME280;16252;49.816;7.964;2022-12-16T09:20:21;99624.34;;;-4.05;57.53
29215;BME280;16252;49.816;7.964;2022-12-16T09:23:05;99663.75;;;-3.76;57.31
29215;BME280;16252;49.816;7.964;2022-12-16T09:25:49;99651.53;;;-3.75;57.87
29215;BME280;16252;49.816;7.964;2022-12-16T09:28:33;99661.81;;;-3.67;57.59
29215;BME280;16252;49.816;7.964;2022-12-16T09:31:17;99665.91;;;-3.56;57.92
29215;BME280;16252;49.816;7.964;2022-12-16T09:34:01;99674.28;;;-3.41;57.61
29215;BME280;16252;49.816;7.964;2022-12-16T09:39:12;99655.91;;;-3.40;57.92
29215;BME280;16252;49.816;7.964;2022-12-16T09:45:25;99637.41;;;-3.32;57.93
29215;BME280;16252;49.816;7.964;2022-12-16T09:48:26;99646.59;;;-3.16;57.83
29215;BME280;16252;49.816;7.964;2022-12-16T09:51:14;99667.22;;;-3.03;58.28
29215;BME280;16252;49.816;7.964;2022-12-16T09:53:58;99665.34;;;-2.98;58.02
29215;BME280;16252;49.816;7.964;2022-12-16T09:56:43;99669.47;;;-2.90;58.12
29215;BME280;16252;49.816;7.964;2022-12-16T09:59:36;99683.81;;;-2.72;57.87
29215;BME280;16252;49.816;7.964;2022-12-16T10:02:24;99675.06;;;-2.71;57.86
29215;BME280;16252;49.816;7.964;2022-12-16T10:05:12;99666.41;;;-2.74;58.09
29215;BME280;16252;49.816;7.964;2022-12-16T10:08:20;99699.75;;;-2.48;57.96
29215;BME280;16252;49.816;7.964;2022-12-16T10:11:11;99704.03;;;-2.46;58.12
29215;BME280;16252;49.816;7.964;2022-12-16T10:14:05;99695.28;;;-2.45;58.08
29215;BME280;16252;49.816;7.964;2022-12-16T10:17:03;99687.34;;;-2.42;58.22
29215;BME280;16252;49.816;7.964;2022-12-16T10:23:02;99685.34;;;-2.33;58.05
29215;BME280;16252;49.816;7.964;2022-12-16T10:25:59;99665.34;;;-2.36;58.27
29215;BME280;16252;49.816;7.964;2022-12-16T10:28:47;99687.53;;;-2.18;58.41
29215;BME280;16252;49.816;7.964;2022-12-16T10:31:32;99630.66;;;-2.44;58.58
29215;BME280;16252;49.816;7.964;2022-12-16T10:34:20;99696.44;;;-1.94;58.69
29215;BME280;16252;49.816;7.964;2022-12-16T10:37:13;99677.31;;;-1.98;58.55
29215;BME280;16252;49.816;7.964;2022-12-16T10:39:59;99687.63;;;-1.91;58.75
29215;BME280;16252;49.816;7.964;2022-12-16T10:42:51;99695.00;;;-1.75;58.55
29215;BME280;16252;49.816;7.964;2022-12-16T10:45:43;99707.63;;;-1.59;58.75
29215;BME280;16252;49.816;7.964;2022-12-16T10:48:29;99698.81;;;-1.57;58.43
29215;BME280;16252;49.816;7.964;2022-12-16T10:51:19;99707.16;;;-1.44;58.75
29215;BME280;16252;49.816;7.964;2022-12-16T10:57:11;99703.09;;;-1.27;58.81
29215;BME280;16252;49.816;7.964;2022-12-16T11:00:17;99698.38;;;-1.16;58.67
29215;BME280;16252;49.816;7.964;2022-12-16T11:03:40;99704.22;;;-1.08;58.88
29215;BME280;16252;49.816;7.964;2022-12-16T11:09:27;99705.78;;;-1.02;59.02
29215;BME280;16252;49.816;7.964;2022-12-16T11:15:24;99709.34;;;-0.78;59.05
29215;BME280;16252;49.816;7.964;2022-12-16T11:18:17;99704.03;;;-0.77;59.22
29215;BME280;16252;49.816;7.964;2022-12-16T11:26:55;99699.69;;;-0.53;59.08
29215;BME280;16252;49.816;7.964;2022-12-16T11:29:56;99702.91;;;-0.45;58.84
29215;BME280;16252;49.816;7.964;2022-12-16T11:32:45;99703.56;;;-0.38;59.37
29215;BME280;16252;49.816;7.964;2022-12-16T11:35:32;99677.78;;;-0.53;59.10
29215;BME280;16252;49.816;7.964;2022-12-16T11:38:23;99701.41;;;-0.28;59.15
29215;BME280;16252;49.816;7.964;2022-12-16T11:41:32;99683.13;;;-0.31;59.01
29215;BME280;16252;49.816;7.964;2022-12-16T11:44:20;99715.78;;;-0.13;59.23
29215;BME280;16252;49.816;7.964;2022-12-16T11:47:14;99693.31;;;-0.22;59.19
29215;BME280;16252;49.816;7.964;2022-12-16T11:50:01;99690.69;;;-0.22;59.13
29215;BME280;16252;49.816;7.964;2022-12-16T11:52:51;99707.69;;;-0.07;59.42
29215;BME280;16252;49.816;7.964;2022-12-16T11:55:36;99682.69;;;-0.19;59.33
29215;BME280;16252;49.816;7.964;2022-12-16T12:01:52;99717.53;;;0.10;59.33
29215;BME280;16252;49.816;7.964;2022-12-16T12:04:38;99720.13;;;0.11;59.18
29215;BME280;16252;49.816;7.964;2022-12-16T12:07:45;99700.88;;;0.11;59.42
29215;BME280;16252;49.816;7.964;2022-12-16T12:13:50;99734.09;;;0.35;59.35
29215;BME280;16252;49.816;7.964;2022-12-16T12:22:35;99722.19;;;0.27;59.59
29215;BME280;16252;49.816;7.964;2022-12-16T12:25:31;99746.91;;;0.45;59.51
29215;BME280;16252;49.816;7.964;2022-12-16T12:28:22;99745.22;;;0.43;59.47
29215;BME280;16252;49.816;7.964;2022-12-16T12:31:31;99745.81;;;0.50;59.32
29215;BME280;16252;49.816;7.964;2022-12-16T12:34:52;99757.09;;;0.54;59.51
29215;BME280;16252;49.816;7.964;2022-12-16T12:37:49;99722.69;;;0.36;59.64
29215;BME280;16252;49.816;7.964;2022-12-16T12:40:49;99751.03;;;0.52;59.57
29215;BME280;16252;49.816;7.964;2022-12-16T12:46:30;99734.59;;;0.45;59.76
29215;BME280;16252;49.816;7.964;2022-12-16T12:52:36;99762.00;;;0.63;59.76
29215;BME280;16252;49.816;7.964;2022-12-16T12:55:37;99750.88;;;0.56;59.90
29215;BME280;16252;49.816;7.964;2022-12-16T12:58:23;99744.91;;;0.51;59.89
29215;BME280;16252;49.816;7.964;2022-12-16T13:01:10;99732.78;;;0.47;59.98
29215;BME280;16252;49.816;7.964;2022-12-16T13:04:00;99743.13;;;0.52;59.96
29215;BME280;16252;49.816;7.964;2022-12-16T13:06:46;99767.16;;;0.66;59.95
29215;BME280;16252;49.816;7.964;2022-12-16T13:09:35;99745.59;;;0.56;60.17
29215;BME280;16252;49.816;7.964;2022-12-16T13:12:25;99755.75;;;0.65;60.28
29215;BME280;16252;49.816;7.964;2022-12-16T13:20:41;99772.16;;;0.72;59.90
29215;BME280;16252;49.816;7.964;2022-12-16T13:23:30;99767.03;;;0.69;59.80
29215;BME280;16252;49.816;7.964;2022-12-16T13:26:16;99782.53;;;0.77;59.75
29215;BME280;16252;49.816;7.964;2022-12-16T13:32:02;99798.16;;;0.81;59.89
29215;BME280;16252;49.816;7.964;2022-12-16T13:34:58;99799.72;;;0.85;59.89
29215;BME280;16252;49.816;7.964;2022-12-16T13:37:56;99807.63;;;0.85;60.04
29215;BME280;16252;49.816;7.964;2022-12-16T13:43:54;99803.47;;;0.80;60.05
29215;BME280;16252;49.816;7.964;2022-12-16T13:46:49;99813.84;;;0.84;60.16
29215;BME280;16252;49.816;7.964;2022-12-16T13:52:25;99824.53;;;0.80;60.41
29215;BME280;16252;49.816;7.964;2022-12-16T13:55:18;99801.47;;;0.63;60.27
29215;BME280;16252;49.816;7.964;2022-12-16T13:58:12;99820.25;;;0.77;60.09
29215;BME280;16252;49.816;7.964;2022-12-16T14:01:04;99831.41;;;0.84;60.16
29215;BME280;16252;49.816;7.964;2022-12-16T14:03:52;99830.66;;;0.80;60.26
29215;BME280;16252;49.816;7.964;2022-12-16T14:06:38;99838.56;;;0.80;60.20
29215;BME280;16252;49.816;7.964;2022-12-16T14:09:33;99846.41;;;0.82;60.31
29215;BME280;16252;49.816;7.964;2022-12-16T14:15:28;99850.06;;;0.78;60.24
29215;BME280;16252;49.816;7.964;2022-12-16T14:18:27;99838.97;;;0.70;60.14
29215;BME280;16252;49.816;7.964;2022-12-16T14:21:17;99826.13;;;0.62;60.25
29215;BME280;16252;49.816;7.964;2022-12-16T14:24:08;99826.44;;;0.53;60.23
29215;BME280;16252;49.816;7.964;2022-12-16T14:26:54;99825.88;;;0.45;60.04
29215;BME280;16252;49.816;7.964;2022-12-16T14:29:42;99850.53;;;0.65;60.22
29215;BME280;16252;49.816;7.964;2022-12-16T14:32:31;99881.84;;;0.73;60.27
29215;BME280;16252;49.816;7.964;2022-12-16T14:35:20;99883.59;;;0.74;60.16
29215;BME280;16252;49.816;7.964;2022-12-16T14:38:25;99879.28;;;0.72;60.11
29215;BME280;16252;49.816;7.964;2022-12-16T14:41:14;99883.03;;;0.66;59.93
29215;BME280;16252;49.816;7.964;2022-12-16T14:44:01;99887.47;;;0.64;60.14
29215;BME280;16252;49.816;7.964;2022-12-16T14:46:49;99873.84;;;0.53;60.26
29215;BME280;16252;49.816;7.964;2022-12-16T14:49:33;99885.19;;;0.55;60.04
29215;BME280;16252;49.816;7.964;2022-12-16T14:52:25;99874.88;;;0.49;60.20
29215;BME280;16252;49.816;7.964;2022-12-16T14:58:04;99901.91;;;0.54;60.21
29215;BME280;16252;49.816;7.964;2022-12-16T15:00:49;99864.16;;;0.30;60.16
29215;BME280;16252;49.816;7.964;2022-12-16T15:03:39;99913.16;;;0.57;60.13
29215;BME280;16252;49.816;7.964;2022-12-16T15:06:35;99913.16;;;0.57;60.11
29215;BME280;16252;49.816;7.964;2022-12-16T15:09:43;99895.31;;;0.42;60.18
29215;BME280;16252;49.816;7.964;2022-12-16T15:12:33;99920.69;;;0.43;60.04
29215;BME280;16252;49.816;7.964;2022-12-16T15:18:16;99920.13;;;0.35;60.03
29215;BME280;16252;49.816;7.964;2022-12-16T15:21:02;99881.81;;;0.03;59.68
29215;BME280;16252;49.816;7.964;2022-12-16T15:23:47;99925.66;;;0.27;59.81
29215;BME280;16252;49.816;7.964;2022-12-16T15:26:33;99955.03;;;0.40;59.86
29215;BME280;16252;49.816;7.964;2022-12-16T15:29:37;99955.88;;;0.40;59.94
29215;BME280;16252;49.816;7.964;2022-12-16T15:32:41;99963.84;;;0.39;59.92
29215;BME280;16252;49.816;7.964;2022-12-16T15:35:29;99971.06;;;0.34;59.94
29215;BME280;16252;49.816;7.964;2022-12-16T15:40:59;99982.75;;;0.25;59.56
29215;BME280;16252;49.816;7.964;2022-12-16T15:43:45;99959.53;;;0.11;59.66
29215;BME280;16252;49.816;7.964;2022-12-16T15:46:31;99961.47;;;0.06;59.60
29215;BME280;16252;49.816;7.964;2022-12-16T15:49:27;99979.53;;;0.17;59.57
29215;BME280;16252;49.816;7.964;2022-12-16T15:52:40;99991.81;;;0.16;59.64
29215;BME280;16252;49.816;7.964;2022-12-16T15:58:24;100008.69;;;0.11;59.58
29215;BME280;16252;49.816;7.964;2022-12-16T16:01:11;99993.28;;;-0.02;59.74